EDT,Max TemperatureF,Mean TemperatureF,Min TemperatureF,Max Dew PointF,MeanDew PointF,Min DewpointF,Max Humidity, Mean Humidity, Min Humidity, Max Sea Level PressureIn, Mean Sea Level PressureIn, Min Sea Level PressureIn, Max VisibilityMiles, Mean VisibilityMiles, Min VisibilityMiles, Max Wind SpeedMPH, Mean Wind SpeedMPH, Max Gust SpeedMPH,PrecipitationIn, CloudCover, Events, WindDirDegrees
2013-4-1,56,42,28,40,31,8,100,68,35,29.84,29.66,29.55,10,8,2,29,7,40,0.11,6,Rain,277
2013-4-2,34,29,23,20,15,10,81,60,38,29.98,29.91,29.84,10,10,6,25,11,40,T,6,Snow,278
2013-4-3,40,32,24,20,13,6,75,51,27,30.25,30.07,29.94,10,10,10,25,11,39,0.00,1,,271
2013-4-4,52,38,24,19,15,12,74,48,21,30.33,30.18,29.97,10,10,10,17,6,23,0.00,0,,216
2013-4-5,53,41,28,25,19,14,63,44,24,29.96,29.86,29.73,10,10,6,21,7,29,T,3,Snow,289
2013-4-6,44,35,26,15,6,0,53,35,16,30.30,30.20,29.97,10,10,10,5,7,7,0.00,1,,312
2013-4-7,59,44,28,37,22,5,59,42,24,30.25,30.05,29.91,10,10,5,28,9,41,0.02,3,Rain,156
2013-4-8,61,51,41,37,32,28,70,50,29,30.11,30.04,29.94,10,10,10,18,5,26,T,4,Rain,279
2013-4-9,61,54,47,47,42,36,72,56,39,30.02,29.94,29.83,10,10,7,20,7,32,0.14,6,Rain,250
2013-4-10,56,51,46,49,46,42,93,83,72,29.99,29.91,29.84,10,7,2,10,4,15,0.93,8,Rain,325
2013-4-11,46,40,33,45,35,26,96,76,55,30.13,29.99,29.86,10,7,2,10,4,14,0.06,8,Rain,321
2013-4-12,39,37,34,32,28,26,89,80,70,30.11,29.91,29.78,10,8,2,31,10,46,0.50,8,Rain,107
2013-4-13,50,42,34,36,33,30,96,76,56,29.94,29.85,29.79,10,10,4,22,2,37,0.05,8,Rain,275
2013-4-14,46,36,26,36,29,22,92,67,41,30.25,30.04,29.94,10,10,8,18,7,25,0.04,7,Rain,256
2013-4-15,62,43,24,31,27,22,88,59,29,30.36,30.28,30.23,10,10,10,12,4,17,0.00,1,,163
2013-4-16,64,56,47,54,43,26,77,60,42,30.30,30.15,30.02,10,9,4,28,9,41,0.21,7,Rain,208
2013-4-17,61,51,41,43,32,26,86,57,27,30.33,30.24,30.13,10,10,10,16,6,23,0.01,2,Rain,302
2013-4-18,65,54,42,48,32,24,72,51,30,30.33,30.21,30.03,10,10,10,23,11,32,0.00,5,,150
2013-4-19,74,59,44,59,53,43,86,72,57,30.01,29.78,29.55,10,8,1,31,15,40,0.95,7,Rain,197
2013-4-20,51,42,33,43,33,18,92,64,36,30.29,29.87,29.72,10,8,2,20,9,32,0.23,7,Rain,275
2013-4-21,49,38,27,21,16,10,63,42,21,30.66,30.54,30.32,10,10,10,14,6,20,0.00,0,,317
2013-4-22,57,44,30,26,17,12,59,39,19,30.71,30.61,30.52,10,10,10,20,10,26,0.00,0,,122
2013-4-23,50,42,33,36,31,23,76,64,52,30.53,30.33,30.13,10,10,10,20,8,25,0.00,5,,101
2013-4-24,76,54,32,49,38,31,92,66,39,30.12,29.97,29.72,10,10,10,24,6,32,0.05,3,,170
2013-4-25,55,45,34,48,29,21,70,49,28,30.28,30.12,29.84,10,10,7,21,8,32,0.01,4,Rain,283
2013-4-26,57,44,31,34,28,24,78,54,30,30.44,30.39,30.28,10,10,10,12,4,17,0.00,2,,258
2013-4-27,63,46,28,33,27,19,92,56,19,30.44,30.37,30.29,10,10,10,10,2,16,0.00,1,,283
2013-4-28,73,54,34,37,32,29,82,53,24,30.31,30.22,30.12,10,10,10,20,4,24,0.00,1,,121
2013-4-29,63,55,46,40,33,27,51,43,35,30.23,30.19,30.17,10,10,10,18,6,25,0.04,6,,144
2013-4-30,73,59,45,43,39,31,92,59,25,30.30,30.26,30.22,10,10,8,15,2,18,0.02,6,Rain,258